sensor_id;sensor_type;location;lat;lon;timestamp;P1;durP1;ratioP1;P2;durP2;ratioP2
70303;SDS011;57712;48.752;11.348;2023-05-10T00:00:54;14.18;;;8.80;;
70303;SDS011;57712;48.752;11.348;2023-05-10T00:03:21;15.48;;;8.73;;
70303;SDS011;57712;48.752;11.348;2023-05-10T00:05:48;12.65;;;8.23;;
70303;SDS011;57712;48.752;11.348;2023-05-10T00:08:15;13.48;;;8.38;;
70303;SDS011;57712;48.752;11.348;2023-05-10T00:10:42;14.17;;;7.43;;
70303;SDS011;57712;48.752;11.348;2023-05-10T00:13:09;12.80;;;6.60;;
70303;SDS011;57712;48.752;11.348;2023-05-10T00:15:35;12.07;;;7.30;;
70303;SDS011;57712;48.752;11.348;2023-05-10T00:18:02;10.68;;;6.18;;
70303;SDS011;57712;48.752;11.348;2023-05-10T00:20:29;8.90;;;5.65;;
70303;SDS011;57712;48.752;11.348;2023-05-10T00:22:55;8.60;;;4.43;;
70303;SDS011;57712;48.752;11.348;2023-05-10T00:25:22;7.85;;;4.10;;
70303;SDS011;57712;48.752;11.348;2023-05-10T00:27:49;7.55;;;3.85;;
70303;SDS011;57712;48.752;11.348;2023-05-10T00:30:16;7.57;;;3.20;;
70303;SDS011;57712;48.752;11.348;2023-05-10T00:32:43;7.65;;;3.88;;
70303;SDS011;57712;48.752;11.348;2023-05-10T00:35:10;7.20;;;3.07;;
70303;SDS011;57712;48.752;11.348;2023-05-10T00:37:37;5.68;;;2.72;;
70303;SDS011;57712;48.752;11.348;2023-05-10T00:40:04;5.70;;;2.40;;
70303;SDS011;57712;48.752;11.348;2023-05-10T00:42:31;5.90;;;2.03;;
70303;SDS011;57712;48.752;11.348;2023-05-10T00:44:58;5.20;;;2.10;;
70303;SDS011;57712;48.752;11.348;2023-05-10T00:47:25;5.77;;;2.00;;
70303;SDS011;57712;48.752;11.348;2023-05-10T00:49:51;5.57;;;2.30;;
70303;SDS011;57712;48.752;11.348;2023-05-10T00:52:18;4.55;;;2.25;;
70303;SDS011;57712;48.752;11.348;2023-05-10T00:54:45;4.65;;;1.88;;
70303;SDS011;57712;48.752;11.348;2023-05-10T00:57:13;5.30;;;1.90;;
70303;SDS011;57712;48.752;11.348;2023-05-10T00:59:41;5.00;;;1.80;;
70303;SDS011;57712;48.752;11.348;2023-05-10T01:02:07;5.20;;;1.92;;
70303;SDS011;57712;48.752;11.348;2023-05-10T01:04:34;5.05;;;1.80;;
70303;SDS011;57712;48.752;11.348;2023-05-10T01:07:01;4.50;;;1.85;;
70303;SDS011;57712;48.752;11.348;2023-05-10T01:09:28;4.50;;;1.73;;
70303;SDS011;57712;48.752;11.348;2023-05-10T01:11:55;5.80;;;1.90;;
70303;SDS011;57712;48.752;11.348;2023-05-10T01:14:22;4.70;;;1.98;;
70303;SDS011;57712;48.752;11.348;2023-05-10T01:16:49;4.60;;;2.05;;
70303;SDS011;57712;48.752;11.348;2023-05-10T01:19:23;5.20;;;2.25;;
70303;SDS011;57712;48.752;11.348;2023-05-10T01:27:17;5.00;;;1.95;;
70303;SDS011;57712;48.752;11.348;2023-05-10T01:30:08;4.88;;;2.33;;
70303;SDS011;57712;48.752;11.348;2023-05-10T01:32:53;4.90;;;2.15;;
70303;SDS011;57712;48.752;11.348;2023-05-10T01:38:19;5.33;;;1.87;;
70303;SDS011;57712;48.752;11.348;2023-05-10T01:46:36;5.10;;;1.92;;
70303;SDS011;57712;48.752;11.348;2023-05-10T01:49:10;5.38;;;2.53;;
70303;SDS011;57712;48.752;11.348;2023-05-10T01:51:44;5.67;;;2.10;;
70303;SDS011;57712;48.752;11.348;2023-05-10T01:54:13;5.10;;;2.22;;
70303;SDS011;57712;48.752;11.348;2023-05-10T01:56:43;4.88;;;2.28;;
70303;SDS011;57712;48.752;11.348;2023-05-10T01:59:13;6.75;;;2.40;;
70303;SDS011;57712;48.752;11.348;2023-05-10T02:01:44;5.72;;;2.17;;
70303;SDS011;57712;48.752;11.348;2023-05-10T02:04:13;5.37;;;2.40;;
70303;SDS011;57712;48.752;11.348;2023-05-10T02:06:43;5.68;;;2.58;;
70303;SDS011;57712;48.752;11.348;2023-05-10T02:09:11;5.68;;;2.65;;
70303;SDS011;57712;48.752;11.348;2023-05-10T02:11:39;6.03;;;2.83;;
70303;SDS011;57712;48.752;11.348;2023-05-10T02:14:09;5.70;;;2.45;;
70303;SDS011;57712;48.752;11.348;2023-05-10T02:16:37;7.23;;;2.37;;
70303;SDS011;57712;48.752;11.348;2023-05-10T02:19:07;6.30;;;2.60;;
70303;SDS011;57712;48.752;11.348;2023-05-10T02:21:37;5.70;;;2.65;;
70303;SDS011;57712;48.752;11.348;2023-05-10T02:24:06;5.47;;;2.50;;
70303;SDS011;57712;48.752;11.348;2023-05-10T02:26:35;5.72;;;2.65;;
70303;SDS011;57712;48.752;11.348;2023-05-10T02:29:02;5.30;;;2.40;;
70303;SDS011;57712;48.752;11.348;2023-05-10T02:31:32;5.38;;;2.70;;
70303;SDS011;57712;48.752;11.348;2023-05-10T02:33:59;5.47;;;3.20;;
70303;SDS011;57712;48.752;11.348;2023-05-10T02:36:27;5.40;;;2.88;;
70303;SDS011;57712;48.752;11.348;2023-05-10T02:38:55;6.32;;;2.80;;
70303;SDS011;57712;48.752;11.348;2023-05-10T02:41:25;5.50;;;3.10;;
70303;SDS011;57712;48.752;11.348;2023-05-10T02:43:55;7.70;;;3.15;;
70303;SDS011;57712;48.752;11.348;2023-05-10T02:46:26;7.57;;;2.80;;
70303;SDS011;57712;48.752;11.348;2023-05-10T02:48:52;7.13;;;3.00;;
70303;SDS011;57712;48.752;11.348;2023-05-10T02:51:19;6.18;;;3.15;;
70303;SDS011;57712;48.752;11.348;2023-05-10T02:53:50;7.20;;;3.07;;
70303;SDS011;57712;48.752;11.348;2023-05-10T02:56:34;5.60;;;3.13;;
70303;SDS011;57712;48.752;11.348;2023-05-10T02:59:02;6.78;;;3.25;;
70303;SDS011;57712;48.752;11.348;2023-05-10T03:01:29;6.68;;;3.20;;
70303;SDS011;57712;48.752;11.348;2023-05-10T03:03:55;5.43;;;2.83;;
70303;SDS011;57712;48.752;11.348;2023-05-10T03:06:22;6.83;;;3.20;;
70303;SDS011;57712;48.752;11.348;2023-05-10T03:08:49;6.40;;;3.38;;
70303;SDS011;57712;48.752;11.348;2023-05-10T03:13:52;6.80;;;3.95;;
70303;SDS011;57712;48.752;11.348;2023-05-10T03:16:29;7.22;;;3.42;;
70303;SDS011;57712;48.752;11.348;2023-05-10T03:19:32;10.70;;;3.53;;
70303;SDS011;57712;48.752;11.348;2023-05-10T03:21:59;6.22;;;3.38;;
70303;SDS011;57712;48.752;11.348;2023-05-10T03:24:34;6.28;;;2.90;;
70303;SDS011;57712;48.752;11.348;2023-05-10T03:27:03;7.15;;;3.25;;
70303;SDS011;57712;48.752;11.348;2023-05-10T03:29:30;5.40;;;2.47;;
70303;SDS011;57712;48.752;11.348;2023-05-10T03:31:58;5.93;;;2.90;;
70303;SDS011;57712;48.752;11.348;2023-05-10T03:34:25;5.53;;;2.13;;
70303;SDS011;57712;48.752;11.348;2023-05-10T03:36:52;5.20;;;2.05;;
70303;SDS011;57712;48.752;11.348;2023-05-10T03:39:19;4.88;;;2.40;;
70303;SDS011;57712;48.752;11.348;2023-05-10T03:41:47;6.15;;;3.03;;
70303;SDS011;57712;48.752;11.348;2023-05-10T03:44:14;14.60;;;2.50;;
70303;SDS011;57712;48.752;11.348;2023-05-10T03:46:40;6.45;;;2.90;;
70303;SDS011;57712;48.752;11.348;2023-05-10T03:49:07;7.45;;;3.25;;
70303;SDS011;57712;48.752;11.348;2023-05-10T03:51:34;5.78;;;2.67;;
70303;SDS011;57712;48.752;11.348;2023-05-10T03:54:01;5.30;;;2.50;;
70303;SDS011;57712;48.752;11.348;2023-05-10T03:56:27;5.37;;;1.87;;
70303;SDS011;57712;48.752;11.348;2023-05-10T03:58:54;5.80;;;1.73;;
70303;SDS011;57712;48.752;11.348;2023-05-10T04:01:22;4.75;;;1.50;;
70303;SDS011;57712;48.752;11.348;2023-05-10T04:03:49;4.60;;;1.60;;
70303;SDS011;57712;48.752;11.348;2023-05-10T04:06:16;3.40;;;0.80;;
70303;SDS011;57712;48.752;11.348;2023-05-10T04:08:43;3.97;;;0.70;;
70303;SDS011;57712;48.752;11.348;2023-05-10T04:11:10;3.65;;;0.75;;
70303;SDS011;57712;48.752;11.348;2023-05-10T04:13:38;2.80;;;0.57;;
70303;SDS011;57712;48.752;11.348;2023-05-10T04:16:05;2.78;;;0.50;;
70303;SDS011;57712;48.752;11.348;2023-05-10T04:18:32;2.95;;;0.63;;
70303;SDS011;57712;48.752;11.348;2023-05-10T04:20:58;3.10;;;0.57;;
70303;SDS011;57712;48.752;11.348;2023-05-10T04:23:25;2.30;;;0.40;;
70303;SDS011;57712;48.752;11.348;2023-05-10T04:25:58;3.20;;;0.60;;
70303;SDS011;57712;48.752;11.348;2023-05-10T04:28:25;3.13;;;0.60;;
70303;SDS011;57712;48.752;11.348;2023-05-10T04:30:53;2.75;;;0.80;;
70303;SDS011;57712;48.752;11.348;2023-05-10T04:33:27;2.60;;;0.50;;
70303;SDS011;57712;48.752;11.348;2023-05-10T04:35:53;2.80;;;0.52;;
70303;SDS011;57712;48.752;11.348;2023-05-10T04:38:20;2.72;;;0.40;;
70303;SDS011;57712;48.752;11.348;2023-05-10T04:40:47;3.35;;;0.45;;
70303;SDS011;57712;48.752;11.348;2023-05-10T04:43:13;3.00;;;0.60;;
70303;SDS011;57712;48.752;11.348;2023-05-10T04:45:40;2.77;;;0.60;;
70303;SDS011;57712;48.752;11.348;2023-05-10T04:48:08;5.03;;;0.50;;
70303;SDS011;57712;48.752;11.348;2023-05-10T04:50:36;3.00;;;0.55;;
70303;SDS011;57712;48.752;11.348;2023-05-10T04:53:03;3.38;;;0.85;;
70303;SDS011;57712;48.752;11.348;2023-05-10T04:55:29;7.43;;;1.40;;
70303;SDS011;57712;48.752;11.348;2023-05-10T04:57:56;5.23;;;0.67;;
70303;SDS011;57712;48.752;11.348;2023-05-10T05:00:23;3.17;;;0.40;;
70303;SDS011;57712;48.752;11.348;2023-05-10T05:02:50;3.65;;;0.70;;
70303;SDS011;57712;48.752;11.348;2023-05-10T05:05:18;2.42;;;0.47;;
70303;SDS011;57712;48.752;11.348;2023-05-10T05:07:44;2.80;;;0.60;;
70303;SDS011;57712;48.752;11.348;2023-05-10T05:10:11;2.53;;;0.43;;
70303;SDS011;57712;48.752;11.348;2023-05-10T05:12:37;2.50;;;0.50;;
70303;SDS011;57712;48.752;11.348;2023-05-10T05:15:04;2.30;;;0.52;;
70303;SDS011;57712;48.752;11.348;2023-05-10T05:17:34;2.28;;;0.40;;
70303;SDS011;57712;48.752;11.348;2023-05-10T05:20:01;2.90;;;0.60;;
70303;SDS011;57712;48.752;11.348;2023-05-10T05:22:27;2.73;;;0.40;;
70303;SDS011;57712;48.752;11.348;2023-05-10T05:24:55;2.30;;;0.43;;
70303;SDS011;57712;48.752;11.348;2023-05-10T05:27:22;3.47;;;0.57;;
70303;SDS011;57712;48.752;11.348;2023-05-10T05:29:52;3.40;;;0.50;;
70303;SDS011;57712;48.752;11.348;2023-05-10T05:32:23;2.45;;;0.43;;
70303;SDS011;57712;48.752;11.348;2023-05-10T05:34:50;2.73;;;0.73;;
70303;SDS011;57712;48.752;11.348;2023-05-10T05:37:18;3.13;;;0.75;;
70303;SDS011;57712;48.752;11.348;2023-05-10T05:39:47;3.65;;;0.80;;
70303;SDS011;57712;48.752;11.348;2023-05-10T05:42:13;4.35;;;0.80;;
70303;SDS011;57712;48.752;11.348;2023-05-10T05:44:42;3.08;;;0.80;;
70303;SDS011;57712;48.752;11.348;2023-05-10T05:47:09;4.90;;;0.77;;
70303;SDS011;57712;48.752;11.348;2023-05-10T05:49:36;4.47;;;1.10;;
70303;SDS011;57712;48.752;11.348;2023-05-10T05:52:03;3.65;;;1.25;;
70303;SDS011;57712;48.752;11.348;2023-05-10T05:54:30;3.40;;;1.10;;
70303;SDS011;57712;48.752;11.348;2023-05-10T05:56:58;4.88;;;1.30;;
70303;SDS011;57712;48.752;11.348;2023-05-10T05:59:26;3.50;;;1.30;;
70303;SDS011;57712;48.752;11.348;2023-05-10T06:01:53;4.55;;;1.20;;
70303;SDS011;57712;48.752;11.348;2023-05-10T06:04:20;3.38;;;0.90;;
70303;SDS011;57712;48.752;11.348;2023-05-10T06:06:47;3.65;;;1.20;;
70303;SDS011;57712;48.752;11.348;2023-05-10T06:09:14;3.30;;;0.88;;
70303;SDS011;57712;48.752;11.348;2023-05-10T06:11:41;3.33;;;0.90;;
70303;SDS011;57712;48.752;11.348;2023-05-10T06:14:08;3.30;;;1.05;;
70303;SDS011;57712;48.752;11.348;2023-05-10T06:16:35;3.50;;;1.00;;
70303;SDS011;57712;48.752;11.348;2023-05-10T06:19:02;3.33;;;1.02;;
70303;SDS011;57712;48.752;11.348;2023-05-10T06:21:29;3.40;;;1.40;;
70303;SDS011;57712;48.752;11.348;2023-05-10T06:23:56;4.80;;;1.20;;
70303;SDS011;57712;48.752;11.348;2023-05-10T06:26:23;3.97;;;1.00;;
70303;SDS011;57712;48.752;11.348;2023-05-10T06:28:49;3.40;;;1.10;;
70303;SDS011;57712;48.752;11.348;2023-05-10T06:31:16;4.32;;;1.38;;
70303;SDS011;57712;48.752;11.348;2023-05-10T06:33:43;4.30;;;1.33;;
70303;SDS011;57712;48.752;11.348;2023-05-10T06:36:10;3.00;;;0.83;;
70303;SDS011;57712;48.752;11.348;2023-05-10T06:38:36;4.43;;;1.20;;
70303;SDS011;57712;48.752;11.348;2023-05-10T06:41:03;3.20;;;1.10;;
70303;SDS011;57712;48.752;11.348;2023-05-10T06:43:30;3.90;;;0.90;;
70303;SDS011;57712;48.752;11.348;2023-05-10T06:45:56;3.58;;;0.90;;
70303;SDS011;57712;48.752;11.348;2023-05-10T06:48:24;3.97;;;0.80;;
70303;SDS011;57712;48.752;11.348;2023-05-10T06:50:50;5.15;;;1.50;;
70303;SDS011;57712;48.752;11.348;2023-05-10T06:53:17;4.15;;;1.50;;
70303;SDS011;57712;48.752;11.348;2023-05-10T06:55:43;4.63;;;1.10;;
70303;SDS011;57712;48.752;11.348;2023-05-10T06:58:10;4.95;;;1.33;;
70303;SDS011;57712;48.752;11.348;2023-05-10T07:00:37;4.00;;;0.80;;
70303;SDS011;57712;48.752;11.348;2023-05-10T07:03:06;3.72;;;1.30;;
70303;SDS011;57712;48.752;11.348;2023-05-10T07:05:33;4.40;;;1.20;;
70303;SDS011;57712;48.752;11.348;2023-05-10T07:08:00;3.75;;;1.35;;
70303;SDS011;57712;48.752;11.348;2023-05-10T07:10:27;4.03;;;1.20;;
70303;SDS011;57712;48.752;11.348;2023-05-10T07:12:54;4.63;;;1.10;;
70303;SDS011;57712;48.752;11.348;2023-05-10T07:15:21;3.53;;;1.00;;
70303;SDS011;57712;48.752;11.348;2023-05-10T07:17:48;4.10;;;1.30;;
70303;SDS011;57712;48.752;11.348;2023-05-10T07:20:15;3.45;;;1.20;;
70303;SDS011;57712;48.752;11.348;2023-05-10T07:22:41;3.85;;;1.02;;
70303;SDS011;57712;48.752;11.348;2023-05-10T07:25:08;4.67;;;1.23;;
70303;SDS011;57712;48.752;11.348;2023-05-10T07:27:35;3.10;;;0.90;;
70303;SDS011;57712;48.752;11.348;2023-05-10T07:30:01;5.45;;;1.92;;
70303;SDS011;57712;48.752;11.348;2023-05-10T07:32:28;4.75;;;1.20;;
70303;SDS011;57712;48.752;11.348;2023-05-10T07:34:55;3.30;;;0.90;;
70303;SDS011;57712;48.752;11.348;2023-05-10T07:37:22;4.47;;;0.70;;
70303;SDS011;57712;48.752;11.348;2023-05-10T07:39:49;4.97;;;1.10;;
70303;SDS011;57712;48.752;11.348;2023-05-10T07:42:15;5.20;;;1.17;;
70303;SDS011;57712;48.752;11.348;2023-05-10T07:44:42;3.35;;;1.23;;
70303;SDS011;57712;48.752;11.348;2023-05-10T07:47:09;4.60;;;1.27;;
70303;SDS011;57712;48.752;11.348;2023-05-10T07:49:36;3.53;;;1.30;;
70303;SDS011;57712;48.752;11.348;2023-05-10T07:52:02;4.28;;;0.90;;
70303;SDS011;57712;48.752;11.348;2023-05-10T07:54:29;4.15;;;1.50;;
70303;SDS011;57712;48.752;11.348;2023-05-10T07:56:56;4.22;;;0.70;;
70303;SDS011;57712;48.752;11.348;2023-05-10T07:59:23;5.68;;;1.67;;
70303;SDS011;57712;48.752;11.348;2023-05-10T08:01:50;9.00;;;1.37;;
70303;SDS011;57712;48.752;11.348;2023-05-10T08:04:16;4.60;;;0.88;;
70303;SDS011;57712;48.752;11.348;2023-05-10T08:06:43;3.30;;;0.95;;
70303;SDS011;57712;48.752;11.348;2023-05-10T08:09:10;4.85;;;1.60;;
70303;SDS011;57712;48.752;11.348;2023-05-10T08:11:37;3.63;;;1.23;;
70303;SDS011;57712;48.752;11.348;2023-05-10T08:14:04;3.53;;;1.07;;
70303;SDS011;57712;48.752;11.348;2023-05-10T08:16:30;3.95;;;1.45;;
70303;SDS011;57712;48.752;11.348;2023-05-10T08:18:58;3.35;;;1.10;;
70303;SDS011;57712;48.752;11.348;2023-05-10T08:21:26;3.08;;;0.60;;
70303;SDS011;57712;48.752;11.348;2023-05-10T08:23:53;3.75;;;1.10;;
70303;SDS011;57712;48.752;11.348;2023-05-10T08:26:20;3.80;;;1.20;;
70303;SDS011;57712;48.752;11.348;2023-05-10T08:28:47;3.72;;;1.27;;
70303;SDS011;57712;48.752;11.348;2023-05-10T08:31:14;3.95;;;1.30;;
70303;SDS011;57712;48.752;11.348;2023-05-10T08:33:41;4.85;;;1.20;;
70303;SDS011;57712;48.752;11.348;2023-05-10T08:36:09;4.18;;;1.38;;
70303;SDS011;57712;48.752;11.348;2023-05-10T08:38:37;3.43;;;1.00;;
70303;SDS011;57712;48.752;11.348;2023-05-10T08:41:04;4.50;;;1.58;;
70303;SDS011;57712;48.752;11.348;2023-05-10T08:43:31;4.32;;;1.25;;
70303;SDS011;57712;48.752;11.348;2023-05-10T08:46:00;4.10;;;1.23;;
70303;SDS011;57712;48.752;11.348;2023-05-10T08:48:29;8.15;;;2.45;;
70303;SDS011;57712;48.752;11.348;2023-05-10T08:50:57;5.80;;;1.20;;
70303;SDS011;57712;48.752;11.348;2023-05-10T08:53:26;3.97;;;1.27;;
70303;SDS011;57712;48.752;11.348;2023-05-10T08:55:56;3.55;;;1.33;;
70303;SDS011;57712;48.752;11.348;2023-05-10T08:58:23;4.72;;;1.13;;
70303;SDS011;57712;48.752;11.348;2023-05-10T09:00:50;4.63;;;1.35;;
70303;SDS011;57712;48.752;11.348;2023-05-10T09:03:17;3.97;;;1.30;;
70303;SDS011;57712;48.752;11.348;2023-05-10T09:05:44;3.55;;;1.13;;
70303;SDS011;57712;48.752;11.348;2023-05-10T09:08:11;3.67;;;1.48;;
70303;SDS011;57712;48.752;11.348;2023-05-10T09:10:39;3.80;;;1.08;;
70303;SDS011;57712;48.752;11.348;2023-05-10T09:13:09;4.10;;;1.17;;
70303;SDS011;57712;48.752;11.348;2023-05-10T09:15:37;8.30;;;1.20;;
70303;SDS011;57712;48.752;11.348;2023-05-10T09:18:04;3.75;;;1.10;;
70303;SDS011;57712;48.752;11.348;2023-05-10T09:20:31;4.00;;;1.27;;
70303;SDS011;57712;48.752;11.348;2023-05-10T09:22:58;4.10;;;0.80;;
70303;SDS011;57712;48.752;11.348;2023-05-10T09:25:24;4.30;;;1.23;;
70303;SDS011;57712;48.752;11.348;2023-05-10T09:27:51;4.90;;;1.07;;
70303;SDS011;57712;48.752;11.348;2023-05-10T09:30:30;4.15;;;1.20;;
70303;SDS011;57712;48.752;11.348;2023-05-10T09:32:58;4.22;;;1.02;;
70303;SDS011;57712;48.752;11.348;2023-05-10T09:35:27;3.50;;;0.68;;
70303;SDS011;57712;48.752;11.348;2023-05-10T09:37:56;3.60;;;1.13;;
70303;SDS011;57712;48.752;11.348;2023-05-10T09:40:26;4.80;;;1.20;;
70303;SDS011;57712;48.752;11.348;2023-05-10T09:42:58;4.30;;;1.08;;
70303;SDS011;57712;48.752;11.348;2023-05-10T09:45:26;6.40;;;1.27;;
70303;SDS011;57712;48.752;11.348;2023-05-10T09:47:54;4.93;;;0.93;;
70303;SDS011;57712;48.752;11.348;2023-05-10T09:50:22;3.67;;;0.65;;
70303;SDS011;57712;48.752;11.348;2023-05-10T09:52:53;4.10;;;1.23;;
70303;SDS011;57712;48.752;11.348;2023-05-10T09:55:38;3.67;;;0.85;;
70303;SDS011;57712;48.752;11.348;2023-05-10T09:58:11;4.18;;;1.27;;
70303;SDS011;57712;48.752;11.348;2023-05-10T10:00:41;3.30;;;1.02;;
70303;SDS011;57712;48.752;11.348;2023-05-10T10:03:16;4.93;;;1.02;;
70303;SDS011;57712;48.752;11.348;2023-05-10T10:05:45;4.20;;;1.10;;
70303;SDS011;57712;48.752;11.348;2023-05-10T10:08:13;3.65;;;0.98;;
70303;SDS011;57712;48.752;11.348;2023-05-10T10:10:41;2.72;;;0.77;;
70303;SDS011;57712;48.752;11.348;2023-05-10T10:13:07;3.65;;;1.05;;
70303;SDS011;57712;48.752;11.348;2023-05-10T10:15:34;4.53;;;1.20;;
70303;SDS011;57712;48.752;11.348;2023-05-10T10:18:02;3.20;;;0.90;;
70303;SDS011;57712;48.752;11.348;2023-05-10T10:20:31;4.00;;;0.98;;
70303;SDS011;57712;48.752;11.348;2023-05-10T10:22:58;3.03;;;0.73;;
70303;SDS011;57712;48.752;11.348;2023-05-10T10:25:25;3.30;;;0.73;;
70303;SDS011;57712;48.752;11.348;2023-05-10T10:30:39;3.47;;;0.60;;
70303;SDS011;57712;48.752;11.348;2023-05-10T10:35:58;4.13;;;0.90;;
70303;SDS011;57712;48.752;11.348;2023-05-10T10:38:35;3.60;;;0.93;;
70303;SDS011;57712;48.752;11.348;2023-05-10T10:41:30;3.90;;;1.27;;
70303;SDS011;57712;48.752;11.348;2023-05-10T10:47:31;4.88;;;1.23;;
70303;SDS011;57712;48.752;11.348;2023-05-10T10:54:44;3.70;;;1.10;;
70303;SDS011;57712;48.752;11.348;2023-05-10T10:57:17;6.30;;;1.50;;
70303;SDS011;57712;48.752;11.348;2023-05-10T10:59:45;3.65;;;0.90;;
70303;SDS011;57712;48.752;11.348;2023-05-10T11:08:00;4.18;;;1.15;;
70303;SDS011;57712;48.752;11.348;2023-05-10T11:10:35;3.97;;;1.00;;
70303;SDS011;57712;48.752;11.348;2023-05-10T11:13:03;3.50;;;1.00;;
70303;SDS011;57712;48.752;11.348;2023-05-10T11:20:49;5.35;;;1.63;;
70303;SDS011;57712;48.752;11.348;2023-05-10T11:23:28;4.93;;;1.33;;
70303;SDS011;57712;48.752;11.348;2023-05-10T11:25:56;4.00;;;1.15;;
70303;SDS011;57712;48.752;11.348;2023-05-10T11:28:23;3.53;;;0.98;;
70303;SDS011;57712;48.752;11.348;2023-05-10T11:30:50;5.82;;;1.00;;
70303;SDS011;57712;48.752;11.348;2023-05-10T11:33:19;3.50;;;1.05;;
70303;SDS011;57712;48.752;11.348;2023-05-10T11:35:46;3.73;;;0.77;;
70303;SDS011;57712;48.752;11.348;2023-05-10T11:38:13;4.60;;;0.90;;
70303;SDS011;57712;48.752;11.348;2023-05-10T11:40:40;6.35;;;1.40;;
70303;SDS011;57712;48.752;11.348;2023-05-10T11:43:08;7.45;;;1.05;;
70303;SDS011;57712;48.752;11.348;2023-05-10T11:45:36;5.03;;;1.52;;
70303;SDS011;57712;48.752;11.348;2023-05-10T11:48:03;4.07;;;1.20;;
70303;SDS011;57712;48.752;11.348;2023-05-10T11:50:30;6.05;;;1.80;;
70303;SDS011;57712;48.752;11.348;2023-05-10T11:52:58;3.72;;;1.17;;
70303;SDS011;57712;48.752;11.348;2023-05-10T11:55:25;4.20;;;1.08;;
70303;SDS011;57712;48.752;11.348;2023-05-10T11:57:52;4.07;;;0.80;;
70303;SDS011;57712;48.752;11.348;2023-05-10T12:00:21;4.33;;;0.70;;
70303;SDS011;57712;48.752;11.348;2023-05-10T12:02:48;5.05;;;1.33;;
70303;SDS011;57712;48.752;11.348;2023-05-10T12:05:15;5.10;;;1.52;;
70303;SDS011;57712;48.752;11.348;2023-05-10T12:07:42;6.13;;;1.27;;
70303;SDS011;57712;48.752;11.348;2023-05-10T12:10:10;4.38;;;0.93;;
70303;SDS011;57712;48.752;11.348;2023-05-10T12:12:45;4.20;;;1.10;;
70303;SDS011;57712;48.752;11.348;2023-05-10T12:15:18;3.70;;;0.93;;
70303;SDS011;57712;48.752;11.348;2023-05-10T12:17:46;4.60;;;1.08;;
70303;SDS011;57712;48.752;11.348;2023-05-10T12:20:17;4.78;;;1.45;;
70303;SDS011;57712;48.752;11.348;2023-05-10T12:22:47;3.72;;;1.10;;
70303;SDS011;57712;48.752;11.348;2023-05-10T12:25:18;3.90;;;1.07;;
70303;SDS011;57712;48.752;11.348;2023-05-10T12:27:55;3.25;;;0.98;;
70303;SDS011;57712;48.752;11.348;2023-05-10T12:30:23;4.35;;;1.30;;
70303;SDS011;57712;48.752;11.348;2023-05-10T12:32:51;3.75;;;0.80;;
70303;SDS011;57712;48.752;11.348;2023-05-10T12:35:18;3.88;;;1.08;;
70303;SDS011;57712;48.752;11.348;2023-05-10T12:37:50;3.77;;;1.10;;
70303;SDS011;57712;48.752;11.348;2023-05-10T12:40:17;3.10;;;0.85;;
70303;SDS011;57712;48.752;11.348;2023-05-10T12:42:44;4.07;;;1.15;;
70303;SDS011;57712;48.752;11.348;2023-05-10T12:45:13;2.70;;;0.70;;
70303;SDS011;57712;48.752;11.348;2023-05-10T12:47:40;3.88;;;1.10;;
70303;SDS011;57712;48.752;11.348;2023-05-10T12:50:09;4.30;;;0.90;;
70303;SDS011;57712;48.752;11.348;2023-05-10T12:52:36;3.20;;;0.90;;
70303;SDS011;57712;48.752;11.348;2023-05-10T12:55:03;2.97;;;1.13;;
70303;SDS011;57712;48.752;11.348;2023-05-10T12:57:30;3.45;;;0.90;;
70303;SDS011;57712;48.752;11.348;2023-05-10T12:59:56;4.40;;;0.90;;
70303;SDS011;57712;48.752;11.348;2023-05-10T13:02:23;3.67;;;0.80;;
70303;SDS011;57712;48.752;11.348;2023-05-10T13:04:50;4.43;;;0.85;;
70303;SDS011;57712;48.752;11.348;2023-05-10T13:07:17;3.78;;;0.80;;
70303;SDS011;57712;48.752;11.348;2023-05-10T13:09:43;4.53;;;0.85;;
70303;SDS011;57712;48.752;11.348;2023-05-10T13:12:10;5.72;;;1.27;;
70303;SDS011;57712;48.752;11.348;2023-05-10T13:14:37;9.67;;;2.00;;
70303;SDS011;57712;48.752;11.348;2023-05-10T13:17:04;5.82;;;1.35;;
70303;SDS011;57712;48.752;11.348;2023-05-10T13:19:31;8.07;;;1.77;;
70303;SDS011;57712;48.752;11.348;2023-05-10T13:21:57;4.70;;;0.95;;
70303;SDS011;57712;48.752;11.348;2023-05-10T13:24:24;4.68;;;0.98;;
70303;SDS011;57712;48.752;11.348;2023-05-10T13:26:51;4.23;;;1.37;;
70303;SDS011;57712;48.752;11.348;2023-05-10T13:29:17;3.42;;;0.90;;
70303;SDS011;57712;48.752;11.348;2023-05-10T13:31:45;5.18;;;1.30;;
70303;SDS011;57712;48.752;11.348;2023-05-10T13:34:12;3.60;;;0.98;;
70303;SDS011;57712;48.752;11.348;2023-05-10T13:36:39;3.78;;;1.48;;
70303;SDS011;57712;48.752;11.348;2023-05-10T13:39:05;4.83;;;1.43;;
70303;SDS011;57712;48.752;11.348;2023-05-10T13:41:32;12.32;;;1.65;;
70303;SDS011;57712;48.752;11.348;2023-05-10T13:43:59;9.98;;;1.90;;
70303;SDS011;57712;48.752;11.348;2023-05-10T13:46:25;6.90;;;1.67;;
70303;SDS011;57712;48.752;11.348;2023-05-10T13:48:52;4.68;;;1.15;;
70303;SDS011;57712;48.752;11.348;2023-05-10T13:51:19;6.20;;;1.23;;
70303;SDS011;57712;48.752;11.348;2023-05-10T13:53:46;7.55;;;1.38;;
70303;SDS011;57712;48.752;11.348;2023-05-10T13:56:13;19.48;;;2.67;;
70303;SDS011;57712;48.752;11.348;2023-05-10T13:58:41;11.95;;;3.00;;
70303;SDS011;57712;48.752;11.348;2023-05-10T14:01:07;12.48;;;3.20;;
70303;SDS011;57712;48.752;11.348;2023-05-10T14:03:35;6.07;;;2.20;;
70303;SDS011;57712;48.752;11.348;2023-05-10T14:06:01;7.07;;;1.38;;
70303;SDS011;57712;48.752;11.348;2023-05-10T14:08:28;4.72;;;1.88;;
70303;SDS011;57712;48.752;11.348;2023-05-10T14:10:56;4.43;;;1.55;;
70303;SDS011;57712;48.752;11.348;2023-05-10T14:13:23;4.38;;;1.63;;
70303;SDS011;57712;48.752;11.348;2023-05-10T14:15:50;4.10;;;1.20;;
70303;SDS011;57712;48.752;11.348;2023-05-10T14:18:17;4.75;;;2.20;;
70303;SDS011;57712;48.752;11.348;2023-05-10T14:20:44;5.40;;;2.08;;
70303;SDS011;57712;48.752;11.348;2023-05-10T14:23:10;4.60;;;1.95;;
70303;SDS011;57712;48.752;11.348;2023-05-10T14:25:40;5.90;;;2.35;;
70303;SDS011;57712;48.752;11.348;2023-05-10T14:28:07;5.20;;;2.30;;
70303;SDS011;57712;48.752;11.348;2023-05-10T14:30:34;6.32;;;2.47;;
70303;SDS011;57712;48.752;11.348;2023-05-10T14:33:01;7.30;;;2.70;;
70303;SDS011;57712;48.752;11.348;2023-05-10T14:35:28;6.03;;;2.42;;
70303;SDS011;57712;48.752;11.348;2023-05-10T14:37:57;6.63;;;2.25;;
70303;SDS011;57712;48.752;11.348;2023-05-10T14:40:24;6.20;;;2.20;;
70303;SDS011;57712;48.752;11.348;2023-05-10T14:42:51;6.85;;;2.33;;
70303;SDS011;57712;48.752;11.348;2023-05-10T14:45:19;6.80;;;2.53;;
70303;SDS011;57712;48.752;11.348;2023-05-10T14:47:47;6.18;;;2.13;;
70303;SDS011;57712;48.752;11.348;2023-05-10T14:50:14;6.63;;;1.90;;
70303;SDS011;57712;48.752;11.348;2023-05-10T14:53:00;3.70;;;1.10;;
70303;SDS011;57712;48.752;11.348;2023-05-10T14:55:27;5.53;;;1.65;;
70303;SDS011;57712;48.752;11.348;2023-05-10T14:57:53;4.32;;;1.30;;
70303;SDS011;57712;48.752;11.348;2023-05-10T15:00:20;4.82;;;1.58;;
70303;SDS011;57712;48.752;11.348;2023-05-10T15:02:48;5.70;;;2.30;;
70303;SDS011;57712;48.752;11.348;2023-05-10T15:05:15;4.83;;;2.00;;
70303;SDS011;57712;48.752;11.348;2023-05-10T15:07:43;4.40;;;2.00;;
70303;SDS011;57712;48.752;11.348;2023-05-10T15:10:10;5.15;;;2.20;;
70303;SDS011;57712;48.752;11.348;2023-05-10T15:12:37;7.57;;;3.63;;
70303;SDS011;57712;48.752;11.348;2023-05-10T15:15:04;5.85;;;3.00;;
70303;SDS011;57712;48.752;11.348;2023-05-10T15:17:32;5.80;;;2.40;;
70303;SDS011;57712;48.752;11.348;2023-05-10T15:19:59;5.75;;;2.83;;